Time;durP1;ratioP1;P1;durP2;ratioP2;P2;SDS_P1;SDS_P2;PMS_P1;PMS_P2;Temp;Humidity;BMP_temperature;BMP_pressure;BME280_temperature;BME280_humidity;BME280_pressure;Samples;Min_cycle;Max_cycle;Signal;HPM_P1;HPM_P2
2021/03/10 00:00:57;;;;;;;38.30;29.83;;;;;;;;;;5053432;28;20039;-68
2021/03/10 00:04:01;;;;;;;38.08;29.35;;;;;;;;;;5053368;28;20056;-68
2021/03/10 00:07:06;;;;;;;37.30;26.88;;;;;;;;;;5053673;28;20055;-68
2021/03/10 00:10:11;;;;;;;35.15;27.95;;;;;;;;;;5053264;28;20052;-68
2021/03/10 00:13:15;;;;;;;38.30;28.42;;;;;;;;;;5053153;28;20044;-68
2021/03/10 00:16:20;;;;;;;24.27;17.17;;;;;;;;;;5053591;28;20052;-67
2021/03/10 00:19:24;;;;;;;11.90;9.38;;;;;;;;;;5053063;28;20060;-68
2021/03/10 00:22:28;;;;;;;5.30;2.72;;;;;;;;;;5053003;28;20055;-68
2021/03/10 00:25:33;;;;;;;5.00;2.90;;;;;;;;;;5052994;28;20037;-68
2021/03/10 00:28:37;;;;;;;5.13;2.70;;;;;;;;;;5052777;28;20045;-68
2021/03/10 00:31:42;;;;;;;4.13;2.20;;;;;;;;;;5052912;28;20032;-68
2021/03/10 00:34:47;;;;;;;5.55;2.65;;;;;;;;;;5052674;28;20041;-68
2021/03/10 00:37:51;;;;;;;4.43;2.40;;;;;;;;;;5052870;28;20045;-67
2021/03/10 00:40:55;;;;;;;2.83;2.20;;;;;;;;;;5052554;28;20033;-67
2021/03/10 00:43:59;;;;;;;2.97;1.65;;;;;;;;;;5052407;28;20045;-67
2021/03/10 00:47:04;;;;;;;2.85;1.63;;;;;;;;;;5052649;28;20037;-67
2021/03/10 00:50:09;;;;;;;2.20;1.15;;;;;;;;;;5052893;28;20041;-67
2021/03/10 00:53:14;;;;;;;2.97;1.02;;;;;;;;;;5052613;28;20040;-67
2021/03/10 00:56:18;;;;;;;2.97;0.70;;;;;;;;;;5051582;28;20040;-68
2021/03/10 00:59:22;;;;;;;2.42;1.02;;;;;;;;;;5052700;28;20041;-68
2021/03/10 01:02:27;;;;;;;2.08;0.70;;;;;;;;;;5052368;28;20037;-68
2021/03/10 01:05:31;;;;;;;1.50;0.90;;;;;;;;;;5052175;28;20040;-68
2021/03/10 01:08:35;;;;;;;1.30;0.80;;;;;;;;;;5052448;28;20037;-68
2021/03/10 01:11:40;;;;;;;1.02;0.70;;;;;;;;;;5052198;28;20049;-66
2021/03/10 01:14:45;;;;;;;2.30;1.10;;;;;;;;;;5052184;28;20033;-66
2021/03/10 01:17:49;;;;;;;1.15;0.93;;;;;;;;;;5051749;28;20049;-66
2021/03/10 01:20:53;;;;;;;3.17;1.00;;;;;;;;;;5051873;28;20041;-67
2021/03/10 01:23:58;;;;;;;1.48;0.93;;;;;;;;;;5051831;28;20429;-67
2021/03/10 01:27:02;;;;;;;3.53;1.25;;;;;;;;;;5051716;28;20029;-66
2021/03/10 01:30:10;;;;;;;1.65;0.80;;;;;;;;;;5052222;28;20045;-67
2021/03/10 01:33:14;;;;;;;1.23;0.77;;;;;;;;;;5051866;28;20025;-67
2021/03/10 01:36:19;;;;;;;1.05;0.80;;;;;;;;;;5051832;28;20366;-67
2021/03/10 01:39:23;;;;;;;1.17;0.80;;;;;;;;;;5051163;28;20338;-67
2021/03/10 01:42:28;;;;;;;1.95;0.73;;;;;;;;;;5051324;28;20053;-67
2021/03/10 01:45:34;;;;;;;0.90;0.85;;;;;;;;;;5050666;28;20067;-67
2021/03/10 01:48:38;;;;;;;1.17;0.88;;;;;;;;;;5050816;28;20048;-67
2021/03/10 01:51:42;;;;;;;0.90;0.70;;;;;;;;;;5051341;28;20033;-66
2021/03/10 01:54:47;;;;;;;1.27;0.80;;;;;;;;;;5051636;28;20041;-68
2021/03/10 01:57:51;;;;;;;1.00;0.95;;;;;;;;;;5051205;28;20041;-68
2021/03/10 02:00:56;;;;;;;1.88;1.13;;;;;;;;;;5051211;28;20033;-68
2021/03/10 02:04:07;;;;;;;2.05;1.00;;;;;;;;;;5051127;28;20040;-68
2021/03/10 02:07:14;;;;;;;2.28;1.00;;;;;;;;;;5050911;28;20037;-67
2021/03/10 02:10:30;;;;;;;1.85;1.10;;;;;;;;;;5051119;28;20045;-68
2021/03/10 02:13:47;;;;;;;1.77;1.10;;;;;;;;;;5051030;28;20033;-68
2021/03/10 02:16:52;;;;;;;1.70;1.13;;;;;;;;;;5051071;28;20338;-68
2021/03/10 02:19:59;;;;;;;0.98;0.88;;;;;;;;;;5051153;28;20049;-68
2021/03/10 02:23:21;;;;;;;2.47;0.88;;;;;;;;;;5050681;28;20404;-68
2021/03/10 02:26:58;;;;;;;1.10;1.00;;;;;;;;;;5051055;28;20040;-68
2021/03/10 02:30:06;;;;;;;1.17;1.00;;;;;;;;;;5050744;28;20499;-68
2021/03/10 02:33:12;;;;;;;1.00;0.90;;;;;;;;;;5050948;28;20028;-66
2021/03/10 02:36:16;;;;;;;2.00;1.40;;;;;;;;;;5050566;28;20033;-66
2021/03/10 02:39:21;;;;;;;1.50;1.10;;;;;;;;;;5050768;28;20029;-67
2021/03/10 02:42:26;;;;;;;1.25;1.13;;;;;;;;;;5049610;28;20045;-67
2021/03/10 02:45:31;;;;;;;1.05;0.90;;;;;;;;;;5049891;28;20045;-66
2021/03/10 02:48:36;;;;;;;1.42;1.10;;;;;;;;;;5050987;28;20477;-67
2021/03/10 02:51:42;;;;;;;1.08;0.98;;;;;;;;;;5051625;28;20037;-67
2021/03/10 02:54:47;;;;;;;1.58;1.20;;;;;;;;;;5054928;28;20041;-67
2021/03/10 02:57:52;;;;;;;2.50;1.38;;;;;;;;;;5054923;28;20369;-68
2021/03/10 03:00:56;;;;;;;2.45;1.48;;;;;;;;;;5054464;28;20365;-68
2021/03/10 03:04:01;;;;;;;1.73;1.50;;;;;;;;;;5054430;28;20049;-67
2021/03/10 03:07:05;;;;;;;1.40;1.30;;;;;;;;;;5054522;28;20037;-67
2021/03/10 03:10:11;;;;;;;1.48;1.38;;;;;;;;;;5054480;28;20043;-67
2021/03/10 03:13:16;;;;;;;2.85;1.40;;;;;;;;;;5054450;28;20033;-67
2021/03/10 03:16:21;;;;;;;1.40;1.20;;;;;;;;;;5054435;28;20045;-67
2021/03/10 03:19:25;;;;;;;1.30;1.20;;;;;;;;;;5054120;28;20045;-67
2021/03/10 03:22:30;;;;;;;1.70;1.27;;;;;;;;;;5054032;28;20045;-67
2021/03/10 03:25:39;;;;;;;1.67;1.58;;;;;;;;;;5054044;28;20041;-68
2021/03/10 03:28:44;;;;;;;1.65;1.30;;;;;;;;;;5054108;28;20029;-67
2021/03/10 03:31:49;;;;;;;1.20;1.10;;;;;;;;;;5053798;28;20025;-66
2021/03/10 03:34:54;;;;;;;1.45;1.10;;;;;;;;;;5054141;28;20028;-67
2021/03/10 03:37:59;;;;;;;1.33;1.08;;;;;;;;;;5053984;28;20358;-67
2021/03/10 03:41:04;;;;;;;1.65;1.23;;;;;;;;;;5053601;28;20362;-68
2021/03/10 03:44:09;;;;;;;1.15;1.00;;;;;;;;;;5053895;28;20481;-66
2021/03/10 03:47:13;;;;;;;4.00;1.10;;;;;;;;;;5053959;28;20037;-67
2021/03/10 03:50:17;;;;;;;1.17;1.08;;;;;;;;;;5053726;28;20037;-66
2021/03/10 03:53:23;;;;;;;1.08;0.98;;;;;;;;;;5052880;28;20029;-67
2021/03/10 03:56:27;;;;;;;2.05;1.33;;;;;;;;;;5053804;28;20045;-68
2021/03/10 03:59:32;;;;;;;1.50;1.25;;;;;;;;;;5053318;28;20041;-66
2021/03/10 04:02:36;;;;;;;1.67;1.30;;;;;;;;;;5052758;28;20049;-68
2021/03/10 04:05:41;;;;;;;1.48;1.10;;;;;;;;;;5053860;28;20037;-68
2021/03/10 04:08:46;;;;;;;2.05;1.50;;;;;;;;;;5053224;28;20033;-66
2021/03/10 04:11:50;;;;;;;1.95;1.40;;;;;;;;;;5053473;28;20160;-66
2021/03/10 04:14:54;;;;;;;1.48;1.20;;;;;;;;;;5053368;28;20033;-68
2021/03/10 04:17:59;;;;;;;2.28;1.50;;;;;;;;;;5053160;28;20049;-68
2021/03/10 04:21:03;;;;;;;1.95;1.30;;;;;;;;;;5052920;28;20037;-67
2021/03/10 04:24:08;;;;;;;1.70;1.27;;;;;;;;;;5052229;28;20053;-68
2021/03/10 04:27:15;;;;;;;2.00;1.33;;;;;;;;;;5053313;28;20041;-67
2021/03/10 04:30:19;;;;;;;1.52;1.27;;;;;;;;;;5053143;28;20040;-68
2021/03/10 04:33:24;;;;;;;1.90;1.40;;;;;;;;;;5053316;28;20033;-67
2021/03/10 04:36:28;;;;;;;1.73;1.42;;;;;;;;;;5052237;28;20521;-68
2021/03/10 04:42:55;;;;;;;3.20;1.30;;;;;;;;;;5052995;28;20033;-69
2021/03/10 04:45:59;;;;;;;2.95;1.50;;;;;;;;;;5052552;28;20397;-67
2021/03/10 04:49:08;;;;;;;3.13;1.95;;;;;;;;;;5052817;28;20041;-68
2021/03/10 04:52:12;;;;;;;2.50;2.30;;;;;;;;;;5052316;28;20045;-68
2021/03/10 04:55:17;;;;;;;2.72;2.53;;;;;;;;;;5052376;28;20037;-68
2021/03/10 04:58:21;;;;;;;3.15;2.80;;;;;;;;;;5052424;28;20033;-69
2021/03/10 05:01:25;;;;;;;3.72;3.00;;;;;;;;;;5052648;28;20041;-68
2021/03/10 05:04:30;;;;;;;3.28;2.97;;;;;;;;;;5052060;28;20045;-66
2021/03/10 05:07:34;;;;;;;3.83;3.40;;;;;;;;;;5052523;28;20632;-69
2021/03/10 05:10:38;;;;;;;3.45;3.15;;;;;;;;;;5052163;28;20377;-66
2021/03/10 05:13:43;;;;;;;4.13;3.72;;;;;;;;;;5052267;28;20032;-68
2021/03/10 05:16:48;;;;;;;5.97;4.22;;;;;;;;;;5052361;28;20041;-67
2021/03/10 05:19:53;;;;;;;6.38;4.75;;;;;;;;;;5052345;28;20377;-68
2021/03/10 05:22:32;;;;;;;6.63;5.20;;;;;;;;;;5068295;28;20353;-68
2021/03/10 05:25:36;;;;;;;6.88;5.43;;;;;;;;;;5068665;28;20037;-67
2021/03/10 05:28:41;;;;;;;8.45;5.47;;;;;;;;;;5068422;28;20431;-68
2021/03/10 05:31:45;;;;;;;9.15;6.07;;;;;;;;;;5067354;28;20041;-68
2021/03/10 05:34:50;;;;;;;6.65;5.57;;;;;;;;;;5067982;28;20036;-66
2021/03/10 05:37:53;;;;;;;10.35;7.13;;;;;;;;;;5068235;28;20473;-66
2021/03/10 05:40:58;;;;;;;10.65;7.30;;;;;;;;;;5068020;28;20393;-68
2021/03/10 05:44:03;;;;;;;9.85;7.70;;;;;;;;;;5067332;28;20370;-67
2021/03/10 05:47:08;;;;;;;11.85;8.02;;;;;;;;;;5067147;28;20036;-66
2021/03/10 05:50:15;;;;;;;14.23;8.93;;;;;;;;;;5068066;28;20369;-68
2021/03/10 05:53:23;;;;;;;14.43;9.23;;;;;;;;;;5067367;28;20044;-68
2021/03/10 05:56:27;;;;;;;14.73;9.82;;;;;;;;;;5067701;28;20041;-67
2021/03/10 05:59:31;;;;;;;18.10;9.85;;;;;;;;;;5067791;28;20041;-68
2021/03/10 06:02:36;;;;;;;14.07;9.60;;;;;;;;;;5067661;28;20045;-67
2021/03/10 06:05:40;;;;;;;17.77;9.82;;;;;;;;;;5066669;28;20037;-67
2021/03/10 06:08:45;;;;;;;16.40;10.45;;;;;;;;;;5067642;28;20381;-68
2021/03/10 06:12:08;;;;;;;21.25;10.40;;;;;;;;;;5067411;28;20040;-67
2021/03/10 06:15:14;;;;;;;17.00;10.30;;;;;;;;;;5067675;28;20064;-68
2021/03/10 06:18:34;;;;;;;15.57;10.90;;;;;;;;;;5067539;28;20044;-66
2021/03/10 06:21:51;;;;;;;14.27;9.60;;;;;;;;;;5066962;28;20040;-67
2021/03/10 06:25:00;;;;;;;21.20;10.30;;;;;;;;;;5067234;28;20032;-68
2021/03/10 06:28:06;;;;;;;18.30;10.98;;;;;;;;;;5067439;28;20040;-67
2021/03/10 06:31:17;;;;;;;15.07;9.80;;;;;;;;;;5066849;28;20040;-68
2021/03/10 06:34:21;;;;;;;17.45;11.30;;;;;;;;;;5053146;28;20037;-66
2021/03/10 06:37:27;;;;;;;16.17;11.07;;;;;;;;;;5054081;28;20033;-68
2021/03/10 06:40:31;;;;;;;16.80;11.57;;;;;;;;;;5053506;28;20037;-67
2021/03/10 06:43:40;;;;;;;17.05;10.73;;;;;;;;;;5053737;28;20033;-67
2021/03/10 06:46:55;;;;;;;16.63;11.27;;;;;;;;;;5053056;28;20044;-66
2021/03/10 06:50:00;;;;;;;15.43;11.43;;;;;;;;;;5053535;28;20054;-68
2021/03/10 06:53:04;;;;;;;15.63;11.30;;;;;;;;;;5053670;28;20044;-67
2021/03/10 06:56:17;;;;;;;15.45;10.57;;;;;;;;;;5053381;28;20040;-68
2021/03/10 06:59:21;;;;;;;19.05;14.65;;;;;;;;;;5052454;28;20045;-68
2021/03/10 07:02:26;;;;;;;14.65;10.43;;;;;;;;;;5052544;28;20045;-66
2021/03/10 07:05:31;;;;;;;16.70;10.95;;;;;;;;;;5053481;28;20033;-67
2021/03/10 07:08:36;;;;;;;14.35;9.77;;;;;;;;;;5053018;28;20044;-64
2021/03/10 07:11:45;;;;;;;43.22;28.42;;;;;;;;;;5052491;28;20037;-67
2021/03/10 07:14:50;;;;;;;15.38;10.25;;;;;;;;;;5052331;28;20044;-66
2021/03/10 07:17:54;;;;;;;15.48;9.00;;;;;;;;;;5053249;28;20048;-67
2021/03/10 07:20:59;;;;;;;14.40;9.40;;;;;;;;;;5051563;28;20041;-67
2021/03/10 07:24:05;;;;;;;14.20;9.30;;;;;;;;;;5052516;28;20033;-68
2021/03/10 07:27:11;;;;;;;15.98;9.48;;;;;;;;;;5052217;28;20037;-67
2021/03/10 07:30:16;;;;;;;16.25;9.80;;;;;;;;;;5052873;28;20037;-66
2021/03/10 07:33:21;;;;;;;15.48;9.52;;;;;;;;;;5052531;28;20485;-65
2021/03/10 07:36:32;;;;;;;17.02;9.90;;;;;;;;;;5051208;28;20033;-66
2021/03/10 07:39:37;;;;;;;12.80;8.98;;;;;;;;;;5051578;28;20374;-65
2021/03/10 07:42:50;;;;;;;16.02;9.75;;;;;;;;;;5052358;28;20049;-67
2021/03/10 07:45:55;;;;;;;11.60;8.85;;;;;;;;;;5051581;28;20473;-66
2021/03/10 07:49:00;;;;;;;13.68;9.18;;;;;;;;;;5052394;28;20036;-66
2021/03/10 07:52:08;;;;;;;11.30;8.57;;;;;;;;;;5052441;28;20041;-66
2021/03/10 07:55:12;;;;;;;16.85;8.52;;;;;;;;;;5052573;28;20045;-66
2021/03/10 07:58:26;;;;;;;18.00;8.25;;;;;;;;;;5052428;28;20033;-66
2021/03/10 08:01:30;;;;;;;15.00;8.07;;;;;;;;;;5051655;28;20045;-65
2021/03/10 08:04:35;;;;;;;9.20;7.43;;;;;;;;;;5051530;28;20476;-67
2021/03/10 08:07:40;;;;;;;12.98;8.27;;;;;;;;;;5052176;28;20036;-70
2021/03/10 08:10:44;;;;;;;11.75;7.32;;;;;;;;;;5052135;28;20041;-67
2021/03/10 08:13:59;;;;;;;12.98;7.20;;;;;;;;;;5052304;28;20041;-66
2021/03/10 08:17:05;;;;;;;10.93;7.15;;;;;;;;;;5051579;28;20398;-67
2021/03/10 08:20:09;;;;;;;10.20;6.68;;;;;;;;;;5051172;28;20374;-66
2021/03/10 08:23:13;;;;;;;12.93;7.05;;;;;;;;;;5039854;28;20049;-66
2021/03/10 08:26:18;;;;;;;12.02;7.30;;;;;;;;;;5051533;28;20029;-67
2021/03/10 08:29:23;;;;;;;11.90;6.90;;;;;;;;;;5051501;28;20036;-65
2021/03/10 08:32:30;;;;;;;9.65;6.80;;;;;;;;;;5050849;28;20041;-66
2021/03/10 08:35:35;;;;;;;9.73;6.28;;;;;;;;;;5051460;28;20041;-65
2021/03/10 08:38:40;;;;;;;13.23;6.32;;;;;;;;;;5052059;28;20389;-66
2021/03/10 08:41:48;;;;;;;9.13;6.82;;;;;;;;;;5051152;28;20048;-66
2021/03/10 08:44:53;;;;;;;15.20;7.15;;;;;;;;;;5051913;28;20032;-66
2021/03/10 08:48:01;;;;;;;10.13;6.35;;;;;;;;;;5051825;28;20053;-70
2021/03/10 08:51:06;;;;;;;9.40;7.13;;;;;;;;;;5050968;28;20488;-66
2021/03/10 08:54:11;;;;;;;11.13;6.40;;;;;;;;;;5051795;28;20037;-67
2021/03/10 08:57:18;;;;;;;12.02;6.70;;;;;;;;;;5051181;28;20037;-67
2021/03/10 09:00:25;;;;;;;11.98;6.68;;;;;;;;;;5051698;28;20420;-65
2021/03/10 09:03:30;;;;;;;9.73;7.10;;;;;;;;;;5051075;28;20053;-68
2021/03/10 09:06:38;;;;;;;10.57;7.28;;;;;;;;;;5050552;28;20037;-68
2021/03/10 09:09:43;;;;;;;10.40;6.93;;;;;;;;;;5050640;28;20500;-66
2021/03/10 09:12:49;;;;;;;13.13;6.38;;;;;;;;;;5050778;28;20029;-67
2021/03/10 09:15:56;;;;;;;9.10;6.30;;;;;;;;;;5051530;28;20037;-67
2021/03/10 09:19:08;;;;;;;11.07;6.57;;;;;;;;;;5051401;28;20041;-67
2021/03/10 09:22:26;;;;;;;10.15;6.97;;;;;;;;;;5049502;28;20052;-67
2021/03/10 09:25:36;;;;;;;9.60;6.57;;;;;;;;;;5051265;28;20044;-67
2021/03/10 09:28:46;;;;;;;9.93;6.38;;;;;;;;;;5050976;28;20492;-68
2021/03/10 09:31:58;;;;;;;11.90;6.43;;;;;;;;;;5050069;28;20477;-66
2021/03/10 09:35:11;;;;;;;10.25;7.05;;;;;;;;;;5050676;28;20492;-66
2021/03/10 09:38:16;;;;;;;10.20;6.55;;;;;;;;;;5052308;28;20037;-67
2021/03/10 09:41:25;;;;;;;13.10;6.55;;;;;;;;;;5037905;28;20378;-66
2021/03/10 09:44:40;;;;;;;13.43;7.07;;;;;;;;;;5050805;28;20037;-67
2021/03/10 09:47:49;;;;;;;9.48;6.50;;;;;;;;;;5049619;28;20044;-65
2021/03/10 09:51:05;;;;;;;12.90;7.05;;;;;;;;;;5048511;28;20037;-65
2021/03/10 09:54:12;;;;;;;12.00;6.80;;;;;;;;;;5048561;28;20041;-65
2021/03/10 09:57:21;;;;;;;9.35;6.07;;;;;;;;;;5049603;28;20033;-65
2021/03/10 10:00:29;;;;;;;9.20;6.20;;;;;;;;;;5050727;28;20029;-66
2021/03/10 10:03:34;;;;;;;11.93;6.60;;;;;;;;;;5049942;28;20045;-65
2021/03/10 10:06:51;;;;;;;10.48;6.07;;;;;;;;;;5049913;28;20036;-65
2021/03/10 10:09:58;;;;;;;9.40;6.35;;;;;;;;;;5053137;28;20041;-65
2021/03/10 10:13:03;;;;;;;12.85;6.72;;;;;;;;;;5052529;28;20033;-68
2021/03/10 10:16:17;;;;;;;15.40;7.50;;;;;;;;;;5053014;28;20048;-68
2021/03/10 10:19:22;;;;;;;12.80;6.60;;;;;;;;;;5053959;28;20484;-68
2021/03/10 10:22:28;;;;;;;12.20;6.53;;;;;;;;;;5053011;28;20048;-67
2021/03/10 10:25:33;;;;;;;12.18;5.55;;;;;;;;;;5054193;28;20040;-67
2021/03/10 10:28:39;;;;;;;8.27;5.80;;;;;;;;;;5053013;28;20033;-68
2021/03/10 10:31:48;;;;;;;12.90;6.30;;;;;;;;;;5053088;28;20033;-67
2021/03/10 10:34:55;;;;;;;12.23;6.00;;;;;;;;;;5053102;28;20464;-69
2021/03/10 10:37:59;;;;;;;12.07;5.70;;;;;;;;;;5052693;28;20037;-68
2021/03/10 10:41:03;;;;;;;10.50;5.72;;;;;;;;;;5052469;28;20029;-68
2021/03/10 10:44:08;;;;;;;7.82;5.78;;;;;;;;;;5053685;28;20398;-67
2021/03/10 10:47:13;;;;;;;9.00;5.35;;;;;;;;;;5052636;28;20037;-68
2021/03/10 10:50:18;;;;;;;7.97;5.40;;;;;;;;;;5052767;28;20037;-67
2021/03/10 10:53:26;;;;;;;7.97;5.28;;;;;;;;;;5052282;28;20037;-69
2021/03/10 10:56:32;;;;;;;11.00;5.53;;;;;;;;;;5052796;28;20045;-66
2021/03/10 10:59:44;;;;;;;6.88;5.50;;;;;;;;;;5052661;28;20037;-70
2021/03/10 11:02:53;;;;;;;8.05;5.20;;;;;;;;;;5052401;28;20049;-66
2021/03/10 11:06:07;;;;;;;6.40;4.88;;;;;;;;;;5051626;28;20112;-66
2021/03/10 11:09:17;;;;;;;11.48;4.93;;;;;;;;;;5051502;28;20398;-68
2021/03/10 11:12:22;;;;;;;8.93;5.57;;;;;;;;;;5052330;28;20041;-68
2021/03/10 11:15:34;;;;;;;11.38;6.07;;;;;;;;;;5052477;28;20049;-68
2021/03/10 11:19:01;;;;;;;10.82;5.90;;;;;;;;;;5052960;28;20124;-67
2021/03/10 11:22:08;;;;;;;11.35;6.15;;;;;;;;;;5053791;28;20061;-71
2021/03/10 11:25:18;;;;;;;13.82;6.97;;;;;;;;;;5052208;28;20037;-67
2021/03/10 11:28:22;;;;;;;12.85;6.68;;;;;;;;;;5052075;28;20481;-67
2021/03/10 11:31:29;;;;;;;10.30;5.97;;;;;;;;;;5051479;28;20195;-68
2021/03/10 11:34:35;;;;;;;7.40;5.22;;;;;;;;;;5052090;28;20496;-67
2021/03/10 11:37:40;;;;;;;11.70;6.32;;;;;;;;;;5040474;28;20397;-68
2021/03/10 11:40:46;;;;;;;7.13;5.55;;;;;;;;;;5051475;28;20033;-68
2021/03/10 11:43:53;;;;;;;7.07;4.95;;;;;;;;;;5052580;28;20386;-67
2021/03/10 11:46:57;;;;;;;19.05;5.85;;;;;;;;;;5052068;28;20033;-66
2021/03/10 11:50:02;;;;;;;10.27;5.80;;;;;;;;;;5051996;28;20033;-67
2021/03/10 11:53:06;;;;;;;11.73;5.68;;;;;;;;;;5051678;28;20037;-68
2021/03/10 11:56:10;;;;;;;7.82;5.53;;;;;;;;;;5051588;28;20049;-67
2021/03/10 11:59:15;;;;;;;10.20;5.75;;;;;;;;;;5052270;28;20037;-67
2021/03/10 12:02:30;;;;;;;7.30;5.47;;;;;;;;;;5051021;28;20052;-67
2021/03/10 12:05:38;;;;;;;9.73;5.55;;;;;;;;;;5040338;28;20033;-67
2021/03/10 12:08:43;;;;;;;8.00;5.57;;;;;;;;;;5051697;28;20060;-67
2021/03/10 12:11:47;;;;;;;16.73;5.53;;;;;;;;;;5050874;28;20630;-67
2021/03/10 12:14:51;;;;;;;11.68;5.30;;;;;;;;;;5051843;28;20045;-70
2021/03/10 12:17:56;;;;;;;9.30;6.13;;;;;;;;;;5051630;28;20033;-68
2021/03/10 12:21:00;;;;;;;11.75;5.78;;;;;;;;;;5051197;28;20049;-68
2021/03/10 12:24:04;;;;;;;6.90;5.18;;;;;;;;;;5051662;28;20496;-68
2021/03/10 12:27:09;;;;;;;9.75;6.28;;;;;;;;;;5051216;28;20477;-68
2021/03/10 12:30:14;;;;;;;9.15;6.20;;;;;;;;;;5051605;28;20484;-68
2021/03/10 12:33:18;;;;;;;13.20;10.77;;;;;;;;;;5051915;28;20469;-68
2021/03/10 12:36:22;;;;;;;8.40;5.75;;;;;;;;;;5051355;28;20044;-68
2021/03/10 12:39:27;;;;;;;10.55;5.68;;;;;;;;;;5051560;28;20052;-68
2021/03/10 12:42:31;;;;;;;12.75;5.82;;;;;;;;;;5050579;28;20045;-67
2021/03/10 12:45:36;;;;;;;10.85;5.40;;;;;;;;;;5050643;28;20033;-67
2021/03/10 12:48:40;;;;;;;23.48;15.07;;;;;;;;;;5051404;28;20029;-67
2021/03/10 12:51:45;;;;;;;7.15;5.38;;;;;;;;;;5051595;28;20048;-68
2021/03/10 12:54:50;;;;;;;10.27;5.70;;;;;;;;;;5050596;28;20032;-67
2021/03/10 12:57:55;;;;;;;8.13;5.85;;;;;;;;;;5050231;28;20041;-67
2021/03/10 13:00:59;;;;;;;8.20;5.78;;;;;;;;;;5051134;28;20045;-66
2021/03/10 13:04:04;;;;;;;36.35;21.58;;;;;;;;;;5051212;28;20045;-67
2021/03/10 13:07:10;;;;;;;9.00;5.95;;;;;;;;;;5050303;28;20039;-67
2021/03/10 13:10:15;;;;;;;8.75;6.00;;;;;;;;;;5050990;28;20140;-66
2021/03/10 13:13:19;;;;;;;8.05;5.55;;;;;;;;;;5051242;28;20033;-67
2021/03/10 13:16:24;;;;;;;9.20;5.75;;;;;;;;;;5050767;28;20041;-67
2021/03/10 13:19:29;;;;;;;10.85;6.22;;;;;;;;;;5050802;28;20033;-67
2021/03/10 13:22:34;;;;;;;10.13;5.30;;;;;;;;;;5050722;28;20049;-69
2021/03/10 13:25:38;;;;;;;11.73;5.63;;;;;;;;;;5051014;28;20037;-67
2021/03/10 13:28:43;;;;;;;9.02;4.95;;;;;;;;;;5050928;28;20386;-67
2021/03/10 13:31:47;;;;;;;6.53;5.03;;;;;;;;;;5050596;28;20037;-68
2021/03/10 13:34:51;;;;;;;13.50;6.40;;;;;;;;;;5050739;28;20037;-66
2021/03/10 13:37:56;;;;;;;46.38;22.45;;;;;;;;;;5050510;28;20037;-64
2021/03/10 13:41:00;;;;;;;18.58;8.63;;;;;;;;;;5049733;28;20040;-67
2021/03/10 13:44:05;;;;;;;12.75;6.20;;;;;;;;;;5054576;28;20053;-68
2021/03/10 13:47:11;;;;;;;10.75;5.45;;;;;;;;;;5055177;28;20033;-66
2021/03/10 13:50:15;;;;;;;9.38;5.57;;;;;;;;;;5054434;28;20124;-67
2021/03/10 13:53:20;;;;;;;6.93;5.07;;;;;;;;;;5054269;28;20033;-68
2021/03/10 13:56:25;;;;;;;9.75;5.85;;;;;;;;;;5054546;28;20200;-67
2021/03/10 13:59:29;;;;;;;9.57;5.05;;;;;;;;;;5054165;28;20037;-66
2021/03/10 14:02:34;;;;;;;12.18;4.85;;;;;;;;;;5054087;28;20074;-68
2021/03/10 14:05:39;;;;;;;7.25;4.93;;;;;;;;;;5053631;28;20041;-68
2021/03/10 14:08:43;;;;;;;8.75;5.10;;;;;;;;;;5054015;28;20045;-66
2021/03/10 14:11:47;;;;;;;11.73;5.30;;;;;;;;;;5055079;28;20033;-67
2021/03/10 14:14:51;;;;;;;12.65;6.70;;;;;;;;;;5054040;28;20032;-69
2021/03/10 14:17:56;;;;;;;9.15;6.10;;;;;;;;;;5054289;28;20041;-68
2021/03/10 14:21:00;;;;;;;8.20;5.30;;;;;;;;;;5053690;28;20041;-68
2021/03/10 14:24:05;;;;;;;9.43;5.30;;;;;;;;;;5053792;28;20053;-67
2021/03/10 14:27:09;;;;;;;8.38;5.35;;;;;;;;;;5053913;28;20037;-68
2021/03/10 14:30:14;;;;;;;7.90;5.38;;;;;;;;;;5054090;28;20481;-67
2021/03/10 14:33:19;;;;;;;10.00;5.38;;;;;;;;;;5053760;28;20040;-67
2021/03/10 14:36:24;;;;;;;10.40;5.22;;;;;;;;;;5053857;28;20500;-68
2021/03/10 14:39:28;;;;;;;7.47;5.20;;;;;;;;;;5053563;28;20373;-68
2021/03/10 14:42:32;;;;;;;12.07;5.10;;;;;;;;;;5053631;28;20037;-67
2021/03/10 14:45:37;;;;;;;11.35;4.97;;;;;;;;;;5053654;28;20041;-67
2021/03/10 14:48:41;;;;;;;14.30;5.68;;;;;;;;;;5053654;28;20029;-67
2021/03/10 14:51:46;;;;;;;9.27;5.60;;;;;;;;;;5053707;28;20048;-68
2021/03/10 14:54:50;;;;;;;12.13;6.10;;;;;;;;;;5053071;28;20041;-68
2021/03/10 14:57:54;;;;;;;10.18;5.55;;;;;;;;;;5053471;28;20037;-67
2021/03/10 15:00:59;;;;;;;9.40;6.00;;;;;;;;;;5053118;28;20378;-65
2021/03/10 15:04:04;;;;;;;9.13;6.07;;;;;;;;;;5053112;28;20382;-67
2021/03/10 15:07:08;;;;;;;9.95;5.55;;;;;;;;;;5053355;28;20045;-66
2021/03/10 15:10:14;;;;;;;11.52;7.30;;;;;;;;;;5053984;28;20033;-66
2021/03/10 15:13:18;;;;;;;8.90;6.38;;;;;;;;;;5053266;28;20374;-69
2021/03/10 15:16:22;;;;;;;10.32;7.00;;;;;;;;;;5053019;28;20041;-67
2021/03/10 15:19:27;;;;;;;12.05;7.05;;;;;;;;;;5052175;28;20036;-68
2021/03/10 15:22:32;;;;;;;12.65;6.97;;;;;;;;;;5053006;28;20381;-68
2021/03/10 15:25:36;;;;;;;12.80;6.75;;;;;;;;;;5052969;28;20040;-68
2021/03/10 15:28:40;;;;;;;12.70;6.38;;;;;;;;;;5052173;28;20041;-69
2021/03/10 15:31:45;;;;;;;12.10;6.65;;;;;;;;;;5053019;28;20053;-67
2021/03/10 15:34:49;;;;;;;10.15;5.72;;;;;;;;;;5052609;28;20037;-68
2021/03/10 15:37:53;;;;;;;13.48;6.70;;;;;;;;;;5052494;28;20041;-67
2021/03/10 15:40:58;;;;;;;6.93;5.63;;;;;;;;;;5040449;28;20100;-67
2021/03/10 15:44:03;;;;;;;11.18;5.95;;;;;;;;;;5052399;28;20488;-69
2021/03/10 15:47:07;;;;;;;9.98;6.60;;;;;;;;;;5052115;28;20362;-67
2021/03/10 15:50:13;;;;;;;11.93;7.30;;;;;;;;;;5039682;28;20372;-66
2021/03/10 15:53:18;;;;;;;29.17;15.70;;;;;;;;;;5051780;28;20044;-66
2021/03/10 15:56:22;;;;;;;16.77;7.68;;;;;;;;;;5050695;28;20499;-66
2021/03/10 15:59:26;;;;;;;14.38;7.18;;;;;;;;;;5052091;28;20144;-66
2021/03/10 16:02:30;;;;;;;13.50;7.07;;;;;;;;;;5052110;28;20045;-67
2021/03/10 16:05:34;;;;;;;14.88;6.90;;;;;;;;;;5050752;28;20048;-66
2021/03/10 16:08:39;;;;;;;18.05;10.95;;;;;;;;;;5052164;28;20066;-68
2021/03/10 16:11:43;;;;;;;14.32;8.68;;;;;;;;;;5052313;28;20392;-69
2021/03/10 16:14:48;;;;;;;11.45;7.55;;;;;;;;;;5052131;28;20033;-69
2021/03/10 16:17:52;;;;;;;18.30;9.48;;;;;;;;;;5051527;28;20033;-70
2021/03/10 16:20:57;;;;;;;16.88;6.90;;;;;;;;;;5052527;28;20041;-68
2021/03/10 16:24:01;;;;;;;13.68;8.07;;;;;;;;;;5051840;28;20561;-68
2021/03/10 16:27:09;;;;;;;12.77;7.70;;;;;;;;;;5052259;28;20033;-68
2021/03/10 16:30:13;;;;;;;15.40;7.90;;;;;;;;;;5051681;28;20033;-71
2021/03/10 16:33:17;;;;;;;13.90;7.63;;;;;;;;;;5051760;28;20037;-71
2021/03/10 16:36:22;;;;;;;9.57;6.28;;;;;;;;;;5051706;28;20041;-70
2021/03/10 16:39:26;;;;;;;10.38;6.60;;;;;;;;;;5051720;28;20036;-71
2021/03/10 16:42:31;;;;;;;9.57;5.90;;;;;;;;;;5050589;28;20053;-69
2021/03/10 16:45:36;;;;;;;11.73;6.55;;;;;;;;;;5051412;28;20037;-69
2021/03/10 16:48:40;;;;;;;14.50;8.60;;;;;;;;;;5050546;28;20048;-70
2021/03/10 16:51:44;;;;;;;15.30;7.60;;;;;;;;;;5051366;28;20132;-71
2021/03/10 16:54:49;;;;;;;15.77;7.38;;;;;;;;;;5050816;28;20045;-69
2021/03/10 16:57:53;;;;;;;12.68;6.75;;;;;;;;;;5050701;28;20045;-67
2021/03/10 17:00:58;;;;;;;10.43;6.50;;;;;;;;;;5051221;28;20044;-66
2021/03/10 17:04:02;;;;;;;11.40;6.88;;;;;;;;;;5051174;28;20053;-67
2021/03/10 17:07:07;;;;;;;14.43;7.20;;;;;;;;;;5051280;28;20370;-68
2021/03/10 17:10:11;;;;;;;12.70;7.55;;;;;;;;;;5051160;28;20045;-68
2021/03/10 17:13:16;;;;;;;15.95;7.05;;;;;;;;;;5050709;28;20037;-66
2021/03/10 17:16:20;;;;;;;13.25;7.10;;;;;;;;;;5050674;28;20041;-72
2021/03/10 17:19:25;;;;;;;12.00;7.18;;;;;;;;;;5050704;28;20032;-68
2021/03/10 17:22:30;;;;;;;12.88;7.82;;;;;;;;;;5050873;28;20045;-70
2021/03/10 17:25:34;;;;;;;16.67;9.55;;;;;;;;;;5050692;28;20044;-69
2021/03/10 17:28:39;;;;;;;20.85;7.95;;;;;;;;;;5050480;28;20033;-69
2021/03/10 17:31:43;;;;;;;14.13;8.52;;;;;;;;;;5050667;28;20045;-68
2021/03/10 17:34:48;;;;;;;16.40;8.90;;;;;;;;;;5050611;28;20037;-67
2021/03/10 17:37:52;;;;;;;14.30;9.27;;;;;;;;;;5049920;28;20037;-70
2021/03/10 17:40:56;;;;;;;14.95;8.60;;;;;;;;;;5050875;28;20033;-69
2021/03/10 17:44:01;;;;;;;24.33;9.70;;;;;;;;;;5050531;28;20045;-69
2021/03/10 17:47:05;;;;;;;21.73;10.40;;;;;;;;;;5050546;28;20041;-68
2021/03/10 17:50:10;;;;;;;15.90;11.00;;;;;;;;;;5050593;28;20127;-68
2021/03/10 17:53:13;;;;;;;21.10;10.63;;;;;;;;;;5050161;28;20040;-66
2021/03/10 17:56:18;;;;;;;17.30;10.75;;;;;;;;;;5050481;28;20036;-67
2021/03/10 17:59:22;;;;;;;12.90;8.55;;;;;;;;;;5050741;28;20044;-65
2021/03/10 18:02:27;;;;;;;11.57;7.60;;;;;;;;;;5038096;28;20373;-68
2021/03/10 18:05:31;;;;;;;13.85;8.23;;;;;;;;;;5050343;28;20041;-69
2021/03/10 18:08:37;;;;;;;14.30;9.07;;;;;;;;;;5049669;28;20369;-67
2021/03/10 18:11:42;;;;;;;17.85;12.55;;;;;;;;;;5049489;28;20129;-67
2021/03/10 18:14:46;;;;;;;13.98;8.45;;;;;;;;;;5050614;28;20044;-67
2021/03/10 18:17:51;;;;;;;16.77;8.45;;;;;;;;;;5049838;28;20045;-67
2021/03/10 18:20:55;;;;;;;15.95;9.00;;;;;;;;;;5049841;28;20053;-67
2021/03/10 18:24:00;;;;;;;15.88;8.40;;;;;;;;;;5049951;28;20049;-68
2021/03/10 18:27:05;;;;;;;14.02;8.68;;;;;;;;;;5050173;28;20040;-67